createdAt,value
2019-01-16T00:01:24.224Z,4.50
2019-01-16T00:04:16.800Z,4.40
2019-01-16T00:07:05.323Z,4.50
2019-01-16T00:10:05.201Z,4.40
2019-01-16T00:13:04.889Z,4.40
2019-01-16T00:16:04.548Z,4.40
2019-01-16T00:19:04.472Z,4.40
2019-01-16T00:25:10.190Z,4.40
2019-01-16T00:28:12.430Z,4.30
2019-01-16T00:31:12.440Z,4.20
2019-01-16T00:34:03.876Z,4.20
2019-01-16T00:37:06.811Z,4.20
2019-01-16T00:40:06.476Z,4.20
2019-01-16T00:43:06.864Z,4.10
2019-01-16T00:46:04.086Z,4.10
2019-01-16T00:48:53.990Z,4.00
2019-01-16T00:51:53.812Z,3.90
2019-01-16T00:54:50.727Z,3.90
2019-01-16T00:57:50.816Z,3.80
2019-01-16T01:00:50.484Z,3.80
2019-01-16T01:03:41.243Z,3.90
2019-01-16T01:06:40.965Z,3.80
2019-01-16T01:09:44.272Z,3.80
2019-01-16T01:12:44.148Z,3.80
2019-01-16T01:15:44.520Z,3.90
2019-01-16T01:18:44.654Z,3.90
2019-01-16T01:21:44.280Z,3.90
2019-01-16T01:24:44.832Z,4.00
2019-01-16T01:27:45.086Z,3.90
2019-01-16T01:30:44.568Z,4.00
2019-01-16T01:33:44.813Z,4.00
2019-01-16T01:36:44.273Z,4.00
2019-01-16T01:39:43.620Z,4.00
2019-01-16T01:42:43.804Z,3.90
2019-01-16T01:45:43.152Z,4.00
2019-01-16T01:48:42.635Z,4.00
2019-01-16T01:51:42.548Z,4.00
2019-01-16T01:54:34.643Z,4.00
2019-01-16T01:57:27.996Z,3.90
2019-01-16T02:00:31.108Z,3.90
2019-01-16T02:03:31.325Z,3.80
2019-01-16T02:06:25.920Z,3.80
2019-01-16T02:09:19.384Z,3.80
2019-01-16T02:12:21.614Z,3.80
2019-01-16T02:15:21.489Z,3.70
2019-01-16T02:18:21.088Z,3.80
2019-01-16T02:21:21.447Z,3.70
2019-01-16T02:24:24.023Z,3.70
2019-01-16T02:27:23.815Z,3.70
2019-01-16T02:30:23.165Z,3.70
2019-01-16T02:33:22.803Z,3.80
2019-01-16T02:36:22.182Z,3.80
2019-01-16T02:39:22.590Z,3.80
2019-01-16T02:42:26.060Z,3.90
2019-01-16T02:45:25.985Z,3.90
2019-01-16T02:48:25.514Z,4.00
2019-01-16T02:51:28.783Z,4.00
2019-01-16T02:54:25.432Z,4.00
2019-01-16T02:57:25.304Z,4.10
2019-01-16T03:00:25.642Z,4.10
2019-01-16T03:06:13.927Z,4.00
2019-01-16T03:09:14.009Z,4.10
2019-01-16T03:12:17.162Z,4.20
2019-01-16T03:15:17.236Z,4.10
2019-01-16T03:18:14.619Z,4.20
2019-01-16T03:21:08.408Z,4.20
2019-01-16T03:24:12.012Z,4.10
2019-01-16T03:27:12.244Z,4.10
2019-01-16T03:30:00.657Z,4.20
2019-01-16T03:36:06.140Z,4.20
2019-01-16T03:39:05.638Z,4.20
2019-01-16T03:42:06.135Z,4.20
2019-01-16T03:45:06.187Z,4.20
2019-01-16T03:48:06.179Z,4.20
2019-01-16T03:51:05.596Z,4.20
2019-01-16T03:53:59.320Z,4.30
2019-01-16T03:56:54.803Z,4.20
2019-01-16T03:59:52.615Z,4.20
2019-01-16T04:02:52.788Z,4.20
2019-01-16T04:05:52.609Z,4.20
2019-01-16T04:08:52.360Z,4.20
2019-01-16T04:11:52.702Z,4.20
2019-01-16T04:14:51.564Z,4.30
2019-01-16T04:17:54.734Z,4.30
2019-01-16T04:20:49.152Z,4.30
2019-01-16T04:23:48.601Z,4.30
2019-01-16T04:26:47.952Z,4.30
2019-01-16T04:29:50.353Z,4.30
2019-01-16T04:32:50.365Z,4.40
2019-01-16T04:35:43.616Z,4.40
2019-01-16T04:38:43.092Z,4.40
2019-01-16T04:41:36.899Z,4.40
2019-01-16T04:44:30.261Z,4.30
2019-01-16T04:47:30.120Z,4.30
2019-01-16T04:50:30.067Z,4.30
2019-01-16T04:53:20.084Z,4.40
2019-01-16T04:56:19.712Z,4.40
2019-01-16T04:59:12.932Z,4.50
2019-01-16T05:05:00.250Z,4.50
2019-01-16T05:08:04.731Z,4.40
2019-01-16T05:11:04.525Z,4.40
2019-01-16T05:13:54.529Z,4.50
2019-01-16T05:16:57.237Z,4.50
2019-01-16T05:20:02.770Z,4.50
2019-01-16T05:23:03.536Z,4.30
2019-01-16T05:26:03.578Z,4.30
2019-01-16T05:29:04.832Z,4.40
2019-01-16T05:32:04.657Z,4.40
2019-01-16T05:35:05.116Z,4.30
2019-01-16T05:38:04.594Z,4.40
2019-01-16T05:41:07.924Z,4.40
2019-01-16T05:44:08.413Z,4.40
2019-01-16T05:50:07.650Z,4.30
2019-01-16T05:53:07.044Z,4.30
2019-01-16T05:56:06.739Z,4.30
2019-01-16T05:59:06.685Z,4.40
2019-01-16T06:04:54.152Z,4.40
2019-01-16T06:07:54.159Z,4.30
2019-01-16T06:10:53.579Z,4.40
2019-01-16T06:13:59.600Z,4.30
2019-01-16T06:16:59.559Z,4.20
2019-01-16T06:19:59.663Z,4.20
2019-01-16T06:22:59.816Z,4.20
2019-01-16T06:25:50.612Z,4.20
2019-01-16T06:28:53.387Z,4.30
2019-01-16T06:31:55.836Z,4.50
2019-01-16T06:34:59.481Z,4.40
2019-01-16T06:37:59.666Z,4.30
2019-01-16T06:40:49.684Z,4.30
2019-01-16T06:43:49.588Z,4.30
2019-01-16T06:46:48.968Z,4.40
2019-01-16T06:49:48.407Z,4.60
2019-01-16T06:52:53.875Z,4.70
2019-01-16T06:55:54.195Z,4.70
2019-01-16T06:58:54.397Z,4.60
2019-01-16T07:01:57.404Z,4.50
2019-01-16T07:04:57.272Z,4.50
2019-01-16T07:07:48.750Z,4.60
2019-01-16T07:10:36.243Z,4.60
2019-01-16T07:13:35.957Z,4.70
2019-01-16T07:16:36.398Z,4.50
2019-01-16T07:19:36.054Z,4.50
2019-01-16T07:22:41.958Z,4.40
2019-01-16T07:28:52.966Z,4.20
2019-01-16T07:31:49.215Z,4.20
2019-01-16T07:34:49.028Z,4.30
2019-01-16T07:37:46.607Z,4.20
2019-01-16T07:40:35.666Z,4.20
2019-01-16T07:43:35.480Z,4.20
2019-01-16T07:46:34.904Z,4.10
2019-01-16T07:49:34.703Z,4.00
2019-01-16T07:55:33.939Z,4.10
2019-01-16T07:58:41.323Z,4.30
2019-01-16T08:01:48.731Z,4.30
2019-01-16T08:04:55.882Z,4.20
2019-01-16T08:08:03.288Z,4.30
2019-01-16T08:11:10.340Z,4.40
2019-01-16T08:14:17.418Z,4.40
2019-01-16T08:17:24.560Z,4.40
2019-01-16T08:20:32.292Z,4.40
2019-01-16T08:23:39.345Z,4.30
2019-01-16T08:26:46.864Z,4.10
2019-01-16T08:29:54.321Z,4.10
2019-01-16T08:36:07.576Z,4.20
2019-01-16T08:39:07.748Z,4.10
2019-01-16T08:42:07.196Z,4.10
2019-01-16T08:45:07.311Z,4.10
2019-01-16T08:47:59.260Z,4.00
2019-01-16T08:50:58.735Z,3.70
2019-01-16T08:53:59.154Z,3.80
2019-01-16T08:56:58.705Z,3.70
2019-01-16T09:03:09.744Z,3.90
2019-01-16T09:06:09.864Z,4.00
2019-01-16T09:09:10.359Z,4.20
2019-01-16T09:12:10.253Z,4.20
2019-01-16T09:15:09.999Z,4.00
2019-01-16T09:18:10.288Z,4.00
2019-01-16T09:21:05.119Z,4.10
2019-01-16T09:23:55.279Z,4.20
2019-01-16T09:26:54.096Z,4.30
2019-01-16T09:29:54.119Z,4.40
2019-01-16T09:32:53.939Z,3.90
2019-01-16T09:35:43.912Z,4.00
2019-01-16T09:38:43.860Z,4.20
2019-01-16T09:41:43.459Z,4.40
2019-01-16T09:44:49.724Z,4.60
2019-01-16T09:47:55.282Z,4.10
2019-01-16T09:50:54.862Z,3.90
2019-01-16T09:53:55.204Z,4.10
2019-01-16T09:56:55.121Z,4.10
2019-01-16T09:59:58.100Z,4.20
2019-01-16T10:02:58.408Z,4.30
2019-01-16T10:09:07.184Z,4.30
2019-01-16T10:12:07.405Z,4.10
2019-01-16T10:18:06.360Z,4.40
2019-01-16T10:21:09.204Z,4.40
2019-01-16T10:24:01.000Z,4.30
2019-01-16T10:30:10.782Z,3.90
2019-01-16T10:33:03.752Z,4.00
2019-01-16T10:39:12.502Z,4.40
2019-01-16T10:42:12.468Z,4.50
2019-01-16T10:45:12.349Z,4.40
2019-01-16T10:48:12.620Z,4.40
2019-01-16T10:51:12.420Z,4.40
2019-01-16T10:54:11.965Z,4.30
2019-01-16T10:57:12.085Z,4.20
2019-01-16T11:00:11.516Z,4.10
2019-01-16T11:06:22.722Z,4.40
2019-01-16T11:09:17.207Z,4.40
2019-01-16T11:12:12.417Z,4.40
2019-01-16T11:15:01.688Z,4.30
2019-01-16T11:18:04.701Z,4.40
2019-01-16T11:21:10.970Z,4.50
2019-01-16T11:24:09.327Z,4.60
2019-01-16T11:27:09.836Z,4.70
2019-01-16T11:30:09.921Z,4.90
2019-01-16T11:33:09.752Z,4.90
2019-01-16T11:39:11.012Z,4.80
2019-01-16T11:42:06.670Z,4.60
2019-01-16T11:45:07.156Z,4.70
2019-01-16T11:48:10.152Z,4.70
2019-01-16T11:51:10.321Z,4.90
2019-01-16T11:54:07.556Z,5.10
2019-01-16T11:57:11.189Z,5.40
2019-01-16T11:59:58.899Z,5.30
2019-01-16T12:02:49.521Z,5.10
2019-01-16T12:05:41.860Z,5.20
2019-01-16T12:08:41.555Z,5.50
2019-01-16T12:11:37.091Z,5.60
2019-01-16T12:14:42.536Z,5.70
2019-01-16T12:17:41.888Z,5.50
2019-01-16T12:20:40.915Z,5.50
2019-01-16T12:23:41.472Z,5.50
2019-01-16T12:26:31.631Z,5.40
2019-01-16T12:29:31.687Z,5.50
2019-01-16T12:32:20.799Z,5.60
2019-01-16T12:35:20.562Z,5.60
2019-01-16T12:38:14.956Z,5.40
2019-01-16T12:41:07.907Z,5.70
2019-01-16T12:44:08.106Z,5.60
2019-01-16T12:47:07.648Z,5.70
2019-01-16T12:49:57.324Z,5.80
2019-01-16T12:53:00.591Z,5.70
2019-01-16T12:59:09.352Z,5.00
2019-01-16T13:02:15.362Z,4.80
2019-01-16T13:05:04.783Z,5.10
2019-01-16T13:08:04.925Z,5.90
2019-01-16T13:11:08.128Z,5.90
2019-01-16T13:14:08.548Z,5.90
2019-01-16T13:17:04.253Z,5.90
2019-01-16T13:20:04.472Z,5.90
2019-01-16T13:26:07.748Z,6.30
2019-01-16T13:32:07.552Z,6.00
2019-01-16T13:35:07.425Z,6.10
2019-01-16T13:37:58.016Z,6.30
2019-01-16T13:40:46.241Z,6.80
2019-01-16T13:43:53.408Z,6.90
2019-01-16T13:50:14.162Z,7.20
2019-01-16T13:53:21.505Z,6.50
2019-01-16T13:56:28.810Z,6.50
2019-01-16T13:59:36.088Z,6.50
2019-01-16T14:02:38.689Z,6.20
2019-01-16T14:05:41.825Z,5.90
2019-01-16T14:08:41.840Z,5.70
2019-01-16T14:11:42.392Z,5.90
2019-01-16T14:14:47.869Z,5.90
2019-01-16T14:17:48.260Z,6.00
2019-01-16T14:20:48.240Z,6.10
2019-01-16T14:23:40.760Z,6.30
2019-01-16T14:26:48.204Z,6.20
2019-01-16T14:32:51.812Z,6.10
2019-01-16T14:35:51.692Z,6.00
2019-01-16T14:41:59.296Z,5.80
2019-01-16T14:45:06.677Z,5.40
2019-01-16T14:51:14.137Z,4.70
2019-01-16T14:54:21.525Z,4.40
2019-01-16T14:57:28.665Z,4.30
2019-01-16T15:00:36.083Z,4.10
2019-01-16T15:03:43.277Z,3.90
2019-01-16T15:06:48.013Z,3.90
2019-01-16T15:09:55.388Z,3.80
2019-01-16T15:16:15.704Z,3.60
2019-01-16T15:19:15.270Z,3.60
2019-01-16T15:22:22.715Z,3.60
2019-01-16T15:25:30.148Z,3.50
2019-01-16T15:28:37.576Z,3.50
2019-01-16T15:31:45.804Z,3.40
2019-01-16T15:34:45.876Z,3.40
2019-01-16T15:37:46.296Z,3.30
2019-01-16T15:40:46.868Z,3.20
2019-01-16T15:46:44.291Z,3.30
2019-01-16T15:49:43.828Z,3.30
2019-01-16T15:52:44.931Z,3.20
2019-01-16T15:55:44.811Z,3.20
2019-01-16T15:58:45.172Z,3.10
2019-01-16T16:01:45.730Z,3.10
2019-01-16T16:04:46.180Z,3.10
2019-01-16T16:07:46.420Z,3.10
2019-01-16T16:10:46.764Z,3.00
2019-01-16T16:13:45.896Z,3.00
2019-01-16T16:16:46.428Z,3.00
2019-01-16T16:19:46.669Z,3.00
2019-01-16T16:22:46.881Z,3.00
2019-01-16T16:25:46.395Z,3.00
2019-01-16T16:28:37.602Z,3.10
2019-01-16T16:31:37.544Z,3.00
2019-01-16T16:34:37.980Z,3.00
2019-01-16T16:37:32.548Z,3.00
2019-01-16T16:40:32.405Z,3.00
2019-01-16T16:43:32.215Z,2.90
2019-01-16T16:46:31.657Z,2.90
2019-01-16T16:49:34.464Z,2.90
2019-01-16T16:52:40.331Z,2.80
2019-01-16T16:55:40.487Z,2.90
2019-01-16T16:58:40.184Z,2.80
2019-01-16T17:01:40.240Z,2.90
2019-01-16T17:04:43.486Z,2.80
2019-01-16T17:07:49.895Z,2.90
2019-01-16T17:10:41.467Z,2.80
2019-01-16T17:13:47.514Z,2.80
2019-01-16T17:16:48.473Z,2.90
2019-01-16T17:19:45.023Z,2.90
2019-01-16T17:22:45.297Z,3.00
2019-01-16T17:25:35.859Z,3.00
2019-01-16T17:28:35.636Z,2.90
2019-01-16T17:31:35.162Z,2.90
2019-01-16T17:34:35.187Z,2.90
2019-01-16T17:37:35.389Z,2.90
2019-01-16T17:40:24.785Z,2.80
2019-01-16T17:43:17.935Z,2.80
2019-01-16T17:46:18.147Z,2.80
2019-01-16T17:49:18.247Z,2.80
2019-01-16T17:52:15.674Z,2.80
2019-01-16T17:55:12.072Z,2.70
2019-01-16T17:58:12.073Z,2.70
2019-01-16T18:01:02.588Z,2.70
2019-01-16T18:03:54.347Z,2.80
2019-01-16T18:06:54.350Z,2.70
2019-01-16T18:09:54.536Z,2.70
2019-01-16T18:12:53.952Z,2.60
2019-01-16T18:15:53.544Z,2.60
2019-01-16T18:18:44.799Z,2.50
2019-01-16T18:21:37.216Z,2.20
2019-01-16T18:24:37.526Z,2.20
2019-01-16T18:27:37.315Z,2.00
2019-01-16T18:30:37.213Z,1.90
2019-01-16T18:33:40.805Z,1.90
2019-01-16T18:36:34.408Z,1.90
2019-01-16T18:39:32.119Z,1.80
2019-01-16T18:42:32.145Z,1.90
2019-01-16T18:45:38.089Z,1.80
2019-01-16T18:48:43.940Z,1.80
2019-01-16T18:51:36.932Z,1.90
2019-01-16T18:54:30.520Z,1.90
2019-01-16T18:57:19.375Z,1.80
2019-01-16T19:00:28.075Z,1.80
2019-01-16T19:03:35.472Z,1.80
2019-01-16T19:06:42.869Z,1.80
2019-01-16T19:09:50.860Z,1.80
2019-01-16T19:12:57.918Z,1.80
2019-01-16T19:16:05.561Z,2.30
2019-01-16T19:19:13.054Z,2.30
2019-01-16T19:22:20.890Z,2.00
2019-01-16T19:25:28.202Z,1.90
2019-01-16T19:28:35.707Z,2.00
2019-01-16T19:31:42.979Z,2.00
2019-01-16T19:34:50.373Z,1.90
2019-01-16T19:37:57.810Z,1.90
2019-01-16T19:41:05.673Z,1.90
2019-01-16T19:44:12.799Z,2.10
2019-01-16T19:47:20.228Z,2.20
2019-01-16T19:50:29.285Z,2.10
2019-01-16T19:53:29.276Z,1.90
2019-01-16T19:56:32.051Z,1.80
2019-01-16T19:59:31.900Z,1.80
2019-01-16T20:02:32.225Z,1.90
2019-01-16T20:08:23.478Z,1.80
2019-01-16T20:11:23.545Z,1.80
2019-01-16T20:14:23.603Z,1.90
2019-01-16T20:17:23.299Z,1.90
2019-01-16T20:20:17.403Z,2.00
2019-01-16T20:23:17.145Z,2.20
2019-01-16T20:26:07.999Z,2.10
2019-01-16T20:29:13.892Z,2.10
2019-01-16T20:32:11.611Z,2.00
2019-01-16T20:35:09.887Z,2.20
2019-01-16T20:38:08.148Z,2.20
2019-01-16T20:41:08.504Z,2.00
2019-01-16T20:44:08.057Z,2.00
2019-01-16T20:47:11.067Z,1.90
2019-01-16T20:50:13.883Z,1.80
2019-01-16T20:53:17.547Z,1.90
2019-01-16T20:56:20.878Z,2.20
2019-01-16T20:59:21.016Z,2.20
2019-01-16T21:02:21.323Z,2.10
2019-01-16T21:05:20.852Z,2.30
2019-01-16T21:08:21.109Z,2.10
2019-01-16T21:11:23.309Z,1.90
2019-01-16T21:14:26.167Z,2.10
2019-01-16T21:17:26.200Z,2.50
2019-01-16T21:26:29.012Z,2.40
2019-01-16T21:29:28.443Z,2.40
2019-01-16T21:32:31.687Z,2.70
2019-01-16T21:35:31.322Z,2.90
2019-01-16T21:38:31.512Z,3.00
2019-01-16T21:41:31.781Z,3.00
2019-01-16T21:44:34.320Z,2.60
2019-01-16T21:47:36.587Z,2.70
2019-01-16T21:50:35.513Z,2.90
2019-01-16T21:53:35.706Z,3.00
2019-01-16T21:59:46.207Z,2.60
2019-01-16T22:02:49.095Z,2.60
2019-01-16T22:05:49.295Z,2.60
2019-01-16T22:08:48.943Z,2.60
2019-01-16T22:11:51.472Z,2.70
2019-01-16T22:14:53.984Z,3.00
2019-01-16T22:17:54.164Z,3.10
2019-01-16T22:20:46.335Z,3.10
2019-01-16T22:23:45.949Z,3.20
2019-01-16T22:26:40.884Z,3.10
2019-01-16T22:29:41.188Z,3.10
2019-01-16T22:32:33.428Z,3.20
2019-01-16T22:35:33.558Z,3.20
2019-01-16T22:38:29.971Z,3.20
2019-01-16T22:41:30.208Z,3.30
2019-01-16T22:44:30.487Z,3.40
2019-01-16T22:47:30.072Z,3.50
2019-01-16T22:50:32.816Z,3.60
2019-01-16T22:53:35.376Z,3.80
2019-01-16T22:56:34.193Z,4.00
2019-01-16T22:59:34.098Z,4.20
2019-01-16T23:02:39.727Z,4.20
2019-01-16T23:05:39.961Z,4.30
2019-01-16T23:08:39.349Z,4.20
2019-01-16T23:11:39.033Z,4.20
2019-01-16T23:14:46.168Z,4.20
2019-01-16T23:17:53.565Z,4.20
2019-01-16T23:21:00.960Z,4.20
2019-01-16T23:23:56.088Z,4.10
2019-01-16T23:27:03.127Z,4.00
2019-01-16T23:30:10.361Z,4.10
2019-01-16T23:33:10.355Z,4.20
2019-01-16T23:36:17.520Z,4.20
2019-01-16T23:42:54.240Z,4.30
2019-01-16T23:46:01.396Z,4.40
2019-01-16T23:49:08.716Z,4.40
2019-01-16T23:52:16.140Z,4.40
2019-01-16T23:55:23.877Z,4.40
2019-01-16T23:58:30.934Z,4.50
